createdAt,value
2018-07-02T00:02:20.172Z,1.07
2018-07-02T00:04:48.500Z,0.70
2018-07-02T00:07:20.247Z,0.70
2018-07-02T00:09:49.018Z,0.70
2018-07-02T00:12:18.344Z,0.80
2018-07-02T00:14:47.636Z,0.87
2018-07-02T00:17:16.062Z,0.87
2018-07-02T00:19:44.385Z,0.80
2018-07-02T00:22:13.240Z,0.90
2018-07-02T00:24:41.576Z,0.90
2018-07-02T00:27:10.229Z,1.17
2018-07-02T00:29:38.595Z,0.70
2018-07-02T00:32:07.009Z,0.72
2018-07-02T00:34:35.421Z,0.82
2018-07-02T00:37:03.768Z,0.53
2018-07-02T00:39:32.101Z,0.70
2018-07-02T00:42:00.460Z,0.95
2018-07-02T00:44:28.789Z,0.82
2018-07-02T00:46:57.128Z,0.85
2018-07-02T00:49:25.478Z,0.68
2018-07-02T00:51:53.856Z,0.82
2018-07-02T00:54:22.196Z,0.70
2018-07-02T00:56:50.564Z,0.88
2018-07-02T00:59:18.885Z,0.70
2018-07-02T01:01:47.240Z,0.72
2018-07-02T01:04:15.572Z,0.80
2018-07-02T01:06:43.924Z,1.00
2018-07-02T01:09:12.362Z,0.70
2018-07-02T01:11:40.713Z,1.07
2018-07-02T01:14:09.081Z,0.75
2018-07-02T01:16:37.432Z,0.80
2018-07-02T01:19:05.788Z,0.70
2018-07-02T01:21:34.122Z,0.70
2018-07-02T01:24:02.476Z,0.82
2018-07-02T01:26:30.813Z,0.75
2018-07-02T01:28:59.163Z,0.70
2018-07-02T01:31:27.497Z,0.88
2018-07-02T01:33:55.855Z,0.93
2018-07-02T01:36:24.193Z,0.85
2018-07-02T01:38:52.548Z,1.00
2018-07-02T01:41:20.880Z,0.70
2018-07-02T01:43:49.236Z,0.90
2018-07-02T01:46:17.564Z,0.80
2018-07-02T01:48:45.913Z,0.70
2018-07-02T01:51:14.269Z,0.80
2018-07-02T01:53:42.608Z,1.00
2018-07-02T01:56:10.940Z,0.80
2018-07-02T01:58:39.293Z,0.75
2018-07-02T02:01:07.624Z,0.78
2018-07-02T02:03:35.728Z,0.77
2018-07-02T02:06:04.321Z,0.70
2018-07-02T02:08:32.673Z,0.80
2018-07-02T02:11:01.017Z,0.70
2018-07-02T02:13:29.357Z,0.90
2018-07-02T02:15:57.712Z,0.90
2018-07-02T02:18:26.056Z,0.70
2018-07-02T02:20:54.384Z,0.80
2018-07-02T02:23:22.737Z,0.93
2018-07-02T02:25:51.061Z,1.00
2018-07-02T02:28:19.401Z,1.05
2018-07-02T02:30:47.720Z,0.98
2018-07-02T02:33:16.070Z,0.90
2018-07-02T02:35:44.409Z,1.87
2018-07-02T02:38:12.883Z,1.05
2018-07-02T02:40:41.169Z,1.05
2018-07-02T02:43:09.628Z,1.52
2018-07-02T02:45:37.956Z,1.22
2018-07-02T02:48:06.300Z,1.30
2018-07-02T02:50:34.632Z,1.40
2018-07-02T02:53:02.972Z,1.02
2018-07-02T02:55:31.305Z,1.00
2018-07-02T02:57:59.651Z,0.70
2018-07-02T03:00:28.050Z,1.00
2018-07-02T03:02:56.409Z,1.30
2018-07-02T03:05:24.734Z,1.20
2018-07-02T03:07:53.075Z,0.80
2018-07-02T03:10:21.396Z,0.80
2018-07-02T03:12:49.744Z,1.05
2018-07-02T03:15:18.085Z,1.05
2018-07-02T03:17:46.429Z,0.93
2018-07-02T03:20:14.523Z,0.65
2018-07-02T03:22:42.872Z,0.93
2018-07-02T03:25:11.197Z,1.45
2018-07-02T03:27:39.536Z,1.60
2018-07-02T03:30:07.895Z,1.60
2018-07-02T03:32:36.225Z,1.70
2018-07-02T03:35:04.569Z,1.10
2018-07-02T03:37:32.904Z,1.00
2018-07-02T03:40:01.252Z,1.60
2018-07-02T03:42:29.580Z,2.12
2018-07-02T03:44:57.924Z,2.60
2018-07-02T03:47:26.249Z,4.05
2018-07-02T03:49:54.592Z,2.40
2018-07-02T03:52:22.905Z,1.50
2018-07-02T03:54:51.004Z,1.50
2018-07-02T03:57:19.333Z,1.70
2018-07-02T03:59:47.685Z,2.50
2018-07-02T04:02:16.017Z,2.65
2018-07-02T04:04:44.356Z,1.60
2018-07-02T04:07:12.861Z,1.90
2018-07-02T04:09:41.214Z,1.90
2018-07-02T04:12:09.589Z,1.80
2018-07-02T04:14:37.909Z,1.55
2018-07-02T04:17:06.245Z,1.65
2018-07-02T04:19:34.582Z,1.77
2018-07-02T04:22:02.918Z,1.35
2018-07-02T04:24:31.264Z,1.45
2018-07-02T04:26:59.340Z,1.70
2018-07-02T04:29:27.692Z,1.83
2018-07-02T04:31:56.000Z,1.67
2018-07-02T04:34:24.345Z,1.50
2018-07-02T04:36:52.666Z,1.70
2018-07-02T04:39:21.014Z,1.30
2018-07-02T04:41:49.350Z,1.82
2018-07-02T04:44:17.708Z,1.35
2018-07-02T04:46:46.045Z,1.50
2018-07-02T04:49:14.390Z,1.40
2018-07-02T04:51:42.720Z,1.70
2018-07-02T04:54:11.072Z,1.70
2018-07-02T04:56:39.402Z,1.65
2018-07-02T04:59:07.760Z,1.20
2018-07-02T05:01:36.184Z,1.20
2018-07-02T05:04:04.511Z,1.37
2018-07-02T05:06:32.821Z,1.67
2018-07-02T05:09:01.146Z,1.47
2018-07-02T05:11:29.561Z,1.50
2018-07-02T05:13:57.892Z,1.45
2018-07-02T05:16:26.224Z,1.87
2018-07-02T05:18:54.542Z,1.67
2018-07-02T05:21:22.845Z,1.30
2018-07-02T05:23:51.168Z,1.70
2018-07-02T05:26:19.464Z,1.30
2018-07-02T05:28:47.886Z,1.55
2018-07-02T05:31:16.124Z,1.40
2018-07-02T05:33:44.452Z,1.10
2018-07-02T05:36:12.755Z,1.07
2018-07-02T05:38:41.064Z,1.62
2018-07-02T05:41:09.408Z,1.15
2018-07-02T05:43:37.716Z,1.30
2018-07-02T05:46:06.045Z,1.00
2018-07-02T05:48:34.404Z,1.27
2018-07-02T05:51:02.724Z,1.23
2018-07-02T05:53:31.033Z,1.33
2018-07-02T05:55:59.356Z,0.80
2018-07-02T05:58:27.661Z,0.70
2018-07-02T06:00:55.985Z,1.10
2018-07-02T06:03:24.301Z,0.80
2018-07-02T06:05:52.626Z,1.07
2018-07-02T06:08:20.925Z,0.90
2018-07-02T06:10:49.252Z,1.10
2018-07-02T06:13:17.582Z,1.00
2018-07-02T06:15:45.917Z,0.90
2018-07-02T06:18:14.221Z,0.80
2018-07-02T06:20:42.554Z,0.90
2018-07-02T06:23:10.853Z,1.10
2018-07-02T06:25:39.177Z,1.20
2018-07-02T06:28:07.488Z,1.20
2018-07-02T06:30:35.927Z,0.80
2018-07-02T06:33:04.148Z,1.13
2018-07-02T06:35:32.482Z,1.10
2018-07-02T06:38:00.784Z,1.20
2018-07-02T06:40:29.109Z,0.90
2018-07-02T06:42:57.404Z,0.83
2018-07-02T06:45:25.724Z,0.70
2018-07-02T06:47:54.025Z,0.70
2018-07-02T06:50:22.348Z,0.90
2018-07-02T06:52:50.652Z,0.60
2018-07-02T06:55:18.977Z,1.00
2018-07-02T06:57:47.283Z,0.87
2018-07-02T07:00:15.626Z,0.80
2018-07-02T07:02:43.928Z,0.87
2018-07-02T07:05:12.244Z,0.60
2018-07-02T07:07:40.545Z,0.80
2018-07-02T07:10:08.885Z,0.80
2018-07-02T07:12:37.854Z,0.70
2018-07-02T07:15:06.737Z,1.00
2018-07-02T07:17:35.045Z,0.70
2018-07-02T07:20:03.428Z,0.70
2018-07-02T07:22:31.732Z,0.70
2018-07-02T07:25:00.055Z,0.90
2018-07-02T07:27:28.382Z,0.80
2018-07-02T07:29:56.713Z,1.10
2018-07-02T07:32:25.205Z,0.60
2018-07-02T07:34:53.544Z,1.00
2018-07-02T07:37:21.891Z,0.80
2018-07-02T07:39:50.196Z,0.70
2018-07-02T07:42:18.498Z,0.77
2018-07-02T07:44:46.859Z,0.77
2018-07-02T07:47:15.183Z,0.83
2018-07-02T07:49:43.484Z,0.90
2018-07-02T07:52:11.911Z,0.70
2018-07-02T07:54:40.208Z,0.80
2018-07-02T07:57:08.528Z,0.77
2018-07-02T07:59:36.833Z,1.10
2018-07-02T08:02:05.178Z,0.70
2018-07-02T08:04:33.489Z,0.73
2018-07-02T08:07:01.821Z,0.70
2018-07-02T08:09:30.149Z,0.63
2018-07-02T08:11:58.473Z,0.93
2018-07-02T08:14:26.809Z,0.60
2018-07-02T08:16:55.151Z,0.70
2018-07-02T08:19:23.466Z,0.73
2018-07-02T08:21:51.793Z,0.97
2018-07-02T08:24:20.097Z,0.60
2018-07-02T08:26:48.417Z,0.90
2018-07-02T08:29:16.728Z,0.77
2018-07-02T08:31:45.090Z,1.07
2018-07-02T08:34:13.406Z,0.83
2018-07-02T08:36:41.728Z,1.00
2018-07-02T08:39:11.629Z,0.70
2018-07-02T08:41:40.149Z,0.80
2018-07-02T08:44:08.456Z,1.03
2018-07-02T08:46:36.777Z,0.90
2018-07-02T08:49:05.152Z,0.83
2018-07-02T08:51:33.483Z,0.77
2018-07-02T08:54:01.826Z,0.80
2018-07-02T08:56:30.153Z,0.87
2018-07-02T08:58:58.465Z,0.70
2018-07-02T09:01:26.527Z,0.90
2018-07-02T09:03:54.829Z,0.70
2018-07-02T09:06:23.168Z,0.70
2018-07-02T09:08:51.475Z,0.63
2018-07-02T09:11:19.796Z,0.70
2018-07-02T09:13:48.107Z,0.80
2018-07-02T09:16:16.453Z,0.70
2018-07-02T09:18:44.923Z,0.63
2018-07-02T09:21:13.112Z,0.60
2018-07-02T09:23:41.421Z,1.00
2018-07-02T09:26:09.747Z,0.80
2018-07-02T09:28:38.049Z,0.87
2018-07-02T09:31:06.383Z,0.87
2018-07-02T09:33:34.709Z,0.97
2018-07-02T09:36:03.041Z,0.70
2018-07-02T09:38:31.344Z,0.70
2018-07-02T09:40:59.677Z,0.50
2018-07-02T09:43:28.014Z,0.90
2018-07-02T09:45:56.345Z,0.70
2018-07-02T09:48:24.657Z,0.73
2018-07-02T09:50:53.161Z,0.80
2018-07-02T09:53:21.468Z,0.97
2018-07-02T09:55:49.783Z,0.70
2018-07-02T09:58:18.099Z,0.80
2018-07-02T10:00:46.421Z,0.93
2018-07-02T10:03:14.720Z,0.80
2018-07-02T10:05:43.033Z,0.70
2018-07-02T10:08:11.363Z,0.90
2018-07-02T10:10:39.661Z,0.90
2018-07-02T10:13:07.974Z,0.87
2018-07-02T10:15:36.304Z,1.00
2018-07-02T10:18:04.742Z,0.87
2018-07-02T10:20:33.044Z,1.00
2018-07-02T10:23:01.366Z,1.00
2018-07-02T10:25:29.672Z,0.97
2018-07-02T10:27:57.989Z,0.80
2018-07-02T10:30:26.485Z,0.60
2018-07-02T10:32:54.809Z,1.00
2018-07-02T10:35:23.116Z,0.83
2018-07-02T10:37:51.437Z,0.90
2018-07-02T10:40:19.736Z,0.97
2018-07-02T10:42:48.062Z,1.13
2018-07-02T10:45:16.630Z,0.90
2018-07-02T10:47:44.941Z,0.83
2018-07-02T10:50:13.244Z,0.90
2018-07-02T10:52:41.560Z,1.20
2018-07-02T10:55:09.869Z,0.70
2018-07-02T10:57:38.203Z,0.63
2018-07-02T11:00:06.506Z,1.10
2018-07-02T11:02:34.834Z,0.93
2018-07-02T11:05:03.178Z,0.70
2018-07-02T11:07:31.492Z,0.70
2018-07-02T11:09:59.797Z,1.20
2018-07-02T11:12:28.159Z,0.80
2018-07-02T11:14:56.461Z,0.80
2018-07-02T11:17:24.772Z,1.10
2018-07-02T11:19:53.069Z,0.90
2018-07-02T11:22:21.397Z,0.60
2018-07-02T11:24:49.710Z,0.77
2018-07-02T11:27:18.034Z,0.70
2018-07-02T11:29:46.336Z,0.80
2018-07-02T11:32:14.657Z,0.60
2018-07-02T11:34:42.973Z,0.80
2018-07-02T11:37:11.284Z,0.60
2018-07-02T11:39:39.584Z,1.00
2018-07-02T11:42:07.942Z,0.80
2018-07-02T11:44:36.232Z,0.70
2018-07-02T11:47:04.553Z,0.70
2018-07-02T11:49:32.897Z,0.60
2018-07-02T11:52:01.192Z,0.67
2018-07-02T11:54:29.492Z,0.80
2018-07-02T11:56:57.953Z,0.70
2018-07-02T11:59:26.257Z,0.70
2018-07-02T12:01:54.611Z,0.80
2018-07-02T12:04:22.909Z,0.60
2018-07-02T12:06:51.220Z,0.70
2018-07-02T12:09:19.529Z,0.63
2018-07-02T12:11:47.864Z,0.80
2018-07-02T12:14:16.156Z,0.80
2018-07-02T12:16:44.481Z,0.73
2018-07-02T12:19:12.801Z,1.10
2018-07-02T12:21:41.106Z,0.70
2018-07-02T12:24:09.424Z,1.00
2018-07-02T12:26:37.725Z,0.90
2018-07-02T12:29:06.036Z,0.90
2018-07-02T12:31:34.329Z,0.90
2018-07-02T12:34:02.655Z,1.50
2018-07-02T12:36:30.996Z,1.37
2018-07-02T12:38:59.321Z,0.70
2018-07-02T12:41:27.617Z,0.70
2018-07-02T12:43:55.941Z,0.90
2018-07-02T12:46:24.237Z,0.90
2018-07-02T12:48:52.552Z,0.80
2018-07-02T12:51:20.853Z,0.70
2018-07-02T12:53:49.172Z,0.70
2018-07-02T12:56:17.482Z,0.80
2018-07-02T12:58:45.830Z,0.70
2018-07-02T13:01:14.126Z,0.63
2018-07-02T13:03:42.448Z,0.80
2018-07-02T13:06:10.749Z,0.70
2018-07-02T13:08:39.066Z,0.80
2018-07-02T13:11:07.373Z,0.70
2018-07-02T13:13:35.738Z,0.83
2018-07-02T13:16:04.062Z,0.70
2018-07-02T13:18:32.377Z,0.70
2018-07-02T13:21:00.701Z,0.80
2018-07-02T13:23:29.021Z,0.70
2018-07-02T13:25:57.364Z,1.00
2018-07-02T13:28:25.937Z,0.83
2018-07-02T13:30:54.236Z,0.90
2018-07-02T13:33:22.560Z,0.60
2018-07-02T13:35:50.874Z,1.17
2018-07-02T13:38:19.202Z,0.80
2018-07-02T13:40:47.497Z,0.73
2018-07-02T13:43:15.813Z,0.70
2018-07-02T13:45:44.116Z,0.60
2018-07-02T13:48:12.433Z,0.90
2018-07-02T13:50:40.732Z,0.63
2018-07-02T13:53:09.056Z,0.80
2018-07-02T13:55:37.352Z,0.70
2018-07-02T13:58:05.677Z,0.90
2018-07-02T14:00:33.977Z,0.60
2018-07-02T14:03:02.298Z,0.90
2018-07-02T14:05:30.599Z,0.80
2018-07-02T14:07:58.923Z,0.80
2018-07-02T14:10:27.262Z,0.63
2018-07-02T14:12:55.584Z,0.63
2018-07-02T14:15:23.896Z,0.80
2018-07-02T14:17:52.224Z,0.83
2018-07-02T14:20:20.533Z,0.60
2018-07-02T14:22:48.856Z,0.70
2018-07-02T14:25:17.157Z,0.90
2018-07-02T14:27:45.466Z,0.80
2018-07-02T14:30:13.780Z,1.20
2018-07-02T14:32:42.082Z,0.80
2018-07-02T14:35:10.397Z,0.90
2018-07-02T14:37:38.696Z,0.60
2018-07-02T14:40:07.017Z,1.00
2018-07-02T14:42:35.322Z,0.70
2018-07-02T14:45:03.803Z,0.90
2018-07-02T14:47:31.993Z,0.90
2018-07-02T14:50:00.311Z,1.03
2018-07-02T14:52:28.936Z,0.93
2018-07-02T14:54:57.253Z,0.67
2018-07-02T14:57:25.549Z,0.73
2018-07-02T14:59:53.869Z,0.83
2018-07-02T15:02:22.173Z,0.80
2018-07-02T15:04:50.500Z,0.80
2018-07-02T15:07:18.796Z,0.80
2018-07-02T15:09:47.120Z,0.63
2018-07-02T15:12:15.416Z,0.80
2018-07-02T15:14:43.742Z,0.77
2018-07-02T15:17:12.061Z,1.00
2018-07-02T15:19:40.394Z,0.87
2018-07-02T15:22:08.692Z,0.70
2018-07-02T15:24:37.012Z,0.70
2018-07-02T15:27:05.314Z,0.70
2018-07-02T15:29:33.645Z,0.80
2018-07-02T15:32:01.990Z,1.00
2018-07-02T15:34:30.305Z,0.90
2018-07-02T15:36:58.601Z,0.80
2018-07-02T15:39:26.982Z,0.60
2018-07-02T15:41:55.326Z,1.00
2018-07-02T15:44:23.609Z,1.03
2018-07-02T15:46:52.057Z,0.80
2018-07-02T15:49:20.369Z,0.90
2018-07-02T15:51:48.669Z,0.60
2018-07-02T15:54:16.988Z,0.87
2018-07-02T15:56:45.293Z,0.70
2018-07-02T15:59:13.624Z,0.80
2018-07-02T16:01:41.929Z,0.70
2018-07-02T16:04:10.251Z,1.03
2018-07-02T16:06:38.544Z,0.80
2018-07-02T16:09:08.880Z,0.90
2018-07-02T16:11:37.190Z,0.67
2018-07-02T16:14:05.514Z,0.90
2018-07-02T16:16:33.844Z,0.80
2018-07-02T16:19:02.000Z,0.80
2018-07-02T16:21:30.621Z,0.80
2018-07-02T16:23:58.965Z,0.70
2018-07-02T16:26:27.300Z,0.60
2018-07-02T16:28:55.689Z,0.70
2018-07-02T16:31:24.001Z,0.90
2018-07-02T16:33:52.320Z,1.23
2018-07-02T16:36:20.613Z,0.80
2018-07-02T16:38:48.912Z,0.67
2018-07-02T16:41:17.240Z,0.70
2018-07-02T16:43:45.549Z,0.87
2018-07-02T16:46:13.883Z,0.77
2018-07-02T16:48:42.197Z,0.80
2018-07-02T16:51:10.541Z,0.80
2018-07-02T16:53:38.857Z,0.70
2018-07-02T16:56:08.026Z,0.87
2018-07-02T16:58:36.328Z,0.80
2018-07-02T17:01:05.653Z,0.60
2018-07-02T17:03:34.072Z,0.70
2018-07-02T17:06:02.401Z,0.77
2018-07-02T17:08:30.712Z,0.70
2018-07-02T17:10:59.033Z,0.70
2018-07-02T17:13:27.554Z,0.80
2018-07-02T17:15:55.910Z,0.60
2018-07-02T17:18:24.252Z,0.60
2018-07-02T17:20:52.564Z,1.07
2018-07-02T17:23:20.872Z,1.37
2018-07-02T17:25:49.193Z,0.90
2018-07-02T17:28:17.497Z,0.60
2018-07-02T17:30:45.818Z,0.90
2018-07-02T17:33:14.124Z,0.90
2018-07-02T17:35:42.800Z,0.63
2018-07-02T17:38:11.109Z,0.67
2018-07-02T17:40:39.432Z,0.50
2018-07-02T17:43:07.733Z,0.70
